Impacts METAR Board INFO
IDs:

KJFK - New York/Kennedy Int, NY, US

Updated at: 1709 UTC 14 Dec 2017
Potential Impact None Slight Moderate High
Time14/05Z 14/06Z 14/07Z 14/08Z 14/09Z 14/10Z 14/11Z 14/12Z 14/13Z 14/14Z 14/15Z 14/16Z 14/17Z
VIS10 2 2 3 10 9 10 2 1.25 3 10 10 10
CIG55 28 18 25 18 65 65 23 15 36 18 -- --
CoverOVCOVCOVCOVCOVCOVCOVCOVCOVCOVCBKNSCTSCT
FltCatVFRIFRIFRMVFRMVFRVFRVFRIFRIFRMVFRMVFRVFRVFR
WX-SN-SN BR-SN BR-SN BR-SN---SN-SN BR-SN BR-SN BR------
WDir27027060503050304010360360340350
WSpd15 6 3 4 6 9 6 6 6 10 12 9 12
WGst21 -- -- -- -- -- -- -- -- -- -- -- --
Raw hourly METARs
KJFK 140451Z 27015G21KT 10SM -SN OVC055 M03/M11 A2971 RMK AO2 PK WND 25026/0433 SLP060 SNB40 P0000 T10281106 400001067
KJFK 140551Z 27006KT 2SM -SN BR OVC028 M04/M06 A2967 RMK AO2 SFC VIS 2 1/2 SLP046 931001 P0000 60000 T10441061 11017 21044 58008
KJFK 140651Z 06003KT 2SM -SN BR OVC018 M04/M06 A2964 RMK AO2 SLP036 P0001 T10441056
KJFK 140751Z 05004KT 3SM -SN BR FEW007 OVC025 M04/M05 A2961 RMK AO2 SLP027 SNINCR 1/1 P0002 T10441050
KJFK 140851Z 03006KT 10SM -SN FEW007 OVC018 M04/M05 A2957 RMK AO2 SLP011 P0000 60003 T10441050 58035
KJFK 140958Z COR 05009KT 9SM SCT017 OVC065 M04/M05 A2955 RMK AO2 T10441050
KJFK 141051Z 03006KT 10SM -SN FEW015 OVC065 M04/M05 A2956 RMK AO2 SNB50 SLP009 P0000 T10391050
KJFK 141205Z 04006KT 2SM -SN BR BKN023 OVC039 M03/M04 A2958 RMK AO2 P0001 T10331044
KJFK 141251Z 01006KT 1 1/4SM R04R/6000VP6000FT -SN BR BKN015 BKN037 OVC044 M03/M04 A2960 RMK AO2 SLP022 P0001 T10281039
KJFK 141351Z 36010KT 3SM -SN BR FEW009 BKN036 OVC050 M02/M04 A2964 RMK AO2 SLP037 P0001 T10221039
KJFK 141451Z 36012KT 10SM SCT010 BKN018 BKN050 M03/M04 A2970 RMK AO2 SNE04 SLP056 SCT V BKN P0000 60002 T10281044 53041
KJFK 141551Z 34009KT 10SM SCT020 M02/M06 A2973 RMK AO2 SLP066 SCT V BKN T10221056
KJFK 141651Z 35012KT 10SM SCT025 M02/M07 A2976 RMK AO2 SLP075 T10171072